createdAt,value
2023-02-06T00:08:18.141Z,211.35
2023-02-06T00:09:18.345Z,209.97
2023-02-06T00:10:18.547Z,209.31
2023-02-06T00:11:18.758Z,208.78
2023-02-06T00:12:18.959Z,207.58
2023-02-06T00:13:19.149Z,205.95
2023-02-06T00:14:19.384Z,205.52
2023-02-06T00:15:19.568Z,206.84
2023-02-06T00:16:19.826Z,204.35
2023-02-06T00:17:19.982Z,202.47
2023-02-06T00:18:20.197Z,203.88
2023-02-06T00:19:20.406Z,206.09
2023-02-06T00:20:20.614Z,209.59
2023-02-06T00:21:20.829Z,213.14
2023-02-06T00:22:21.012Z,214.61
2023-02-06T00:23:21.230Z,214.77
2023-02-06T00:24:21.423Z,214.22
2023-02-06T00:25:21.633Z,214.38
2023-02-06T00:26:21.822Z,215.43
2023-02-06T00:27:22.019Z,213.39
2023-02-06T00:28:22.217Z,212.84
2023-02-06T00:29:22.444Z,215.04
2023-02-06T00:30:22.683Z,216.64
2023-02-06T00:31:22.931Z,218.03
2023-02-06T00:32:23.911Z,216.88
2023-02-06T00:33:23.121Z,217.67
2023-02-06T00:34:23.164Z,220.48
2023-02-06T00:35:23.212Z,217.87
2023-02-06T00:36:23.250Z,212.09
2023-02-06T00:37:23.282Z,209.83
2023-02-06T00:38:23.328Z,209.55
2023-02-06T00:40:23.418Z,206.01
2023-02-06T00:41:23.458Z,204.89
2023-02-06T00:42:23.486Z,202.81
2023-02-06T00:44:23.548Z,206.00
2023-02-06T01:11:28.261Z,193.16
2023-02-06T01:12:28.470Z,194.86
2023-02-06T01:13:28.674Z,197.85
2023-02-06T01:14:28.897Z,199.14
2023-02-06T01:15:29.108Z,200.48
2023-02-06T01:16:29.387Z,195.98
2023-02-06T01:17:29.546Z,194.96
2023-02-06T01:18:29.785Z,195.37
2023-02-06T01:19:30.020Z,193.85
2023-02-06T01:20:30.257Z,188.24
2023-02-06T01:21:30.466Z,185.38
2023-02-06T01:22:30.652Z,183.20
2023-02-06T01:23:30.889Z,181.10
2023-02-06T01:24:31.102Z,182.68
2023-02-06T01:25:31.316Z,182.31
2023-02-06T01:26:31.512Z,183.73
2023-02-06T01:27:31.718Z,185.74
2023-02-06T01:28:31.926Z,186.38
2023-02-06T01:29:32.149Z,186.88
2023-02-06T01:30:32.337Z,190.46
2023-02-06T01:31:32.618Z,195.88
2023-02-06T01:32:32.795Z,192.10
2023-02-06T01:33:32.918Z,189.35
2023-02-06T01:34:33.094Z,190.43
2023-02-06T01:35:33.436Z,192.37
2023-02-06T01:36:33.528Z,191.23
2023-02-06T01:37:33.727Z,187.89
2023-02-06T01:38:33.926Z,183.34
2023-02-06T01:39:34.153Z,184.87
2023-02-06T01:40:34.367Z,192.49
2023-02-06T01:41:34.591Z,198.86
2023-02-06T01:42:34.812Z,201.83
2023-02-06T01:43:35.031Z,202.13
2023-02-06T01:44:35.256Z,202.08
2023-02-06T01:45:35.785Z,201.65
2023-02-06T01:46:35.653Z,202.47
2023-02-06T01:47:35.896Z,203.66
2023-02-06T01:48:36.099Z,201.46
2023-02-06T01:49:36.331Z,199.47
2023-02-06T01:50:36.549Z,200.12
2023-02-06T01:51:36.763Z,199.73
2023-02-06T01:52:36.985Z,199.76
2023-02-06T01:53:37.205Z,200.51
2023-02-06T01:54:37.456Z,200.90
2023-02-06T01:58:38.292Z,197.85
2023-02-06T01:59:38.480Z,198.37
2023-02-06T02:00:38.799Z,197.37
2023-02-06T02:01:39.030Z,194.65
2023-02-06T02:02:39.223Z,194.80
2023-02-06T02:03:39.423Z,194.87
2023-02-06T02:04:39.715Z,195.16
2023-02-06T02:05:39.973Z,195.48
2023-02-06T02:06:40.180Z,195.94
2023-02-06T02:07:40.401Z,194.48
2023-02-06T02:08:40.641Z,194.93
2023-02-06T02:09:40.867Z,197.65
2023-02-06T02:10:41.090Z,204.61
2023-02-06T02:11:41.343Z,208.02
2023-02-06T02:12:41.573Z,208.83
2023-02-06T02:13:41.828Z,205.13
2023-02-06T02:14:42.054Z,203.59
2023-02-06T02:15:42.287Z,201.07
2023-02-06T02:16:42.514Z,203.31
2023-02-06T02:17:42.757Z,206.72
2023-02-06T02:18:42.988Z,211.76
2023-02-06T02:19:43.228Z,219.38
2023-02-06T02:20:43.445Z,224.35
2023-02-06T02:21:43.696Z,229.28
2023-02-06T02:22:43.933Z,233.54
2023-02-06T02:23:44.120Z,231.24
2023-02-06T02:42:48.114Z,228.82
2023-02-06T02:43:48.295Z,228.11
2023-02-06T02:44:48.509Z,225.41
2023-02-06T02:45:48.717Z,228.32
2023-02-06T02:46:48.880Z,235.06
2023-02-06T02:47:49.074Z,238.59
2023-02-06T02:48:49.255Z,240.24
2023-02-06T02:49:49.496Z,244.86
2023-02-06T02:50:49.713Z,250.00
2023-02-06T02:51:49.948Z,250.07
2023-02-06T02:52:50.156Z,250.09
2023-02-06T02:53:50.370Z,249.81
2023-02-06T02:54:50.617Z,245.46
2023-02-06T02:55:50.878Z,242.69
2023-02-06T02:56:51.059Z,244.11
2023-02-06T02:57:51.260Z,246.03
2023-02-06T02:59:51.625Z,247.75
2023-02-06T03:00:51.862Z,245.82
2023-02-06T03:01:52.073Z,246.36
2023-02-06T03:02:52.243Z,249.00
2023-02-06T03:03:52.458Z,250.10
2023-02-06T03:04:52.655Z,249.84
2023-02-06T03:05:52.877Z,249.43
2023-02-06T03:06:53.087Z,247.45
2023-02-06T03:07:53.352Z,248.55
2023-02-06T03:31:58.262Z,246.57
2023-02-06T03:32:58.424Z,247.35
2023-02-06T03:33:58.634Z,248.48
2023-02-06T03:34:58.850Z,247.91
2023-02-06T03:35:59.078Z,247.82
2023-02-06T03:36:59.305Z,247.71
2023-02-06T03:37:59.517Z,248.71
2023-02-06T03:38:59.731Z,249.46
2023-02-06T03:39:59.942Z,249.55
2023-02-06T03:41:00.181Z,248.62
2023-02-06T03:42:00.380Z,247.25
2023-02-06T03:43:00.593Z,248.96
2023-02-06T03:44:00.822Z,249.38
2023-02-06T03:45:01.167Z,247.67
2023-02-06T03:46:01.284Z,248.34
2023-02-06T03:47:01.467Z,248.86
2023-02-06T03:48:01.680Z,248.84
2023-02-06T03:49:01.893Z,248.15
2023-02-06T03:50:02.127Z,246.77
2023-02-06T03:51:02.345Z,244.82
2023-02-06T03:52:02.604Z,245.08
2023-02-06T03:53:02.792Z,245.22
2023-02-06T03:54:03.020Z,247.22
2023-02-06T03:55:03.261Z,246.54
2023-02-06T03:56:03.474Z,243.94
2023-02-06T03:57:03.716Z,241.24
2023-02-06T03:58:03.946Z,237.97
2023-02-06T03:59:04.192Z,238.14
2023-02-06T04:00:04.413Z,237.28
2023-02-06T04:01:04.697Z,234.27
2023-02-06T04:02:04.995Z,231.37
2023-02-06T04:03:05.128Z,229.46
2023-02-06T04:04:05.360Z,228.44
2023-02-06T04:05:05.595Z,227.68
2023-02-06T04:07:06.027Z,228.87
2023-02-06T04:08:06.244Z,229.69
2023-02-06T04:09:06.483Z,229.65
2023-02-06T04:17:08.232Z,233.57
2023-02-06T04:18:08.461Z,235.33
2023-02-06T04:19:08.681Z,236.19
2023-02-06T04:20:08.922Z,235.87
2023-02-06T04:21:09.160Z,236.97
2023-02-06T04:22:09.361Z,236.53
2023-02-06T04:23:09.563Z,235.23
2023-02-06T04:24:09.762Z,235.16
2023-02-06T04:25:10.002Z,232.35
2023-02-06T04:26:10.192Z,231.78
2023-02-06T04:27:10.411Z,231.22
2023-02-06T04:28:10.652Z,229.45
2023-02-06T04:29:10.839Z,231.42
2023-02-06T04:30:11.077Z,236.41
2023-02-06T04:31:11.371Z,237.78
2023-02-06T04:32:11.501Z,235.66
2023-02-06T04:33:11.746Z,233.82
2023-02-06T04:34:11.987Z,232.12
2023-02-06T04:35:12.193Z,231.91
2023-02-06T04:36:12.404Z,231.90
2023-02-06T04:37:12.624Z,230.75
2023-02-06T04:38:12.848Z,229.78
2023-02-06T04:39:13.092Z,229.31
2023-02-06T04:40:13.312Z,230.37
2023-02-06T04:41:13.526Z,230.62
2023-02-06T04:42:13.761Z,234.19
2023-02-06T04:43:13.981Z,238.50
2023-02-06T04:44:14.213Z,240.97
2023-02-06T04:45:14.446Z,240.74
2023-02-06T04:46:14.704Z,234.77
2023-02-06T04:47:14.908Z,234.01
2023-02-06T04:48:15.144Z,232.21
2023-02-06T04:49:15.413Z,229.11
2023-02-06T04:50:15.611Z,227.61
2023-02-06T04:51:15.827Z,228.69
2023-02-06T05:01:18.272Z,240.18
2023-02-06T05:48:28.293Z,249.26
2023-02-06T05:49:28.510Z,249.95
2023-02-06T05:50:28.930Z,249.87
2023-02-06T05:51:28.964Z,249.53
2023-02-06T05:52:29.191Z,249.16
2023-02-06T05:53:29.409Z,249.73
2023-02-06T05:54:29.631Z,249.51
2023-02-06T05:55:29.861Z,249.13
2023-02-06T06:33:38.182Z,240.97
2023-02-06T06:34:38.403Z,242.96
2023-02-06T06:35:39.441Z,244.75
2023-02-06T06:36:38.700Z,248.10
2023-02-06T06:37:38.764Z,249.61
2023-02-06T06:38:38.830Z,249.86
2023-02-06T06:39:38.879Z,248.80
2023-02-06T06:40:38.954Z,246.61
2023-02-06T06:41:39.033Z,243.57
2023-02-06T06:42:39.105Z,236.30
2023-02-06T06:43:39.164Z,235.81
2023-02-06T06:44:39.233Z,234.20
2023-02-06T06:45:39.613Z,234.10
2023-02-06T06:46:39.367Z,235.94
2023-02-06T06:47:39.434Z,237.40
2023-02-06T06:48:39.486Z,237.21
2023-02-06T06:49:39.582Z,237.65
2023-02-06T06:50:39.778Z,240.38
2023-02-06T06:51:40.015Z,246.07
2023-02-06T06:52:40.232Z,242.70
2023-02-06T06:53:40.524Z,235.87
2023-02-06T06:54:40.708Z,229.48
2023-02-06T06:55:40.902Z,227.77
2023-02-06T06:56:41.121Z,228.30
2023-02-06T06:57:41.353Z,232.76
2023-02-06T06:59:41.789Z,241.05
2023-02-06T07:26:48.143Z,241.30
2023-02-06T07:27:48.384Z,243.63
2023-02-06T07:28:48.596Z,244.31
2023-02-06T07:29:50.398Z,243.95
2023-02-06T07:30:48.912Z,241.58
2023-02-06T07:31:48.943Z,236.95
2023-02-06T07:32:49.988Z,232.54
2023-02-06T07:33:49.080Z,229.11
2023-02-06T07:34:49.082Z,227.11
2023-02-06T07:35:49.119Z,226.98
2023-02-06T07:36:49.326Z,227.43
2023-02-06T07:37:49.535Z,229.25
2023-02-06T07:38:49.752Z,230.84
2023-02-06T07:39:50.085Z,229.24
2023-02-06T07:40:50.185Z,225.26
2023-02-06T07:41:50.420Z,219.66
2023-02-06T07:42:51.356Z,217.89
2023-02-06T07:43:50.685Z,218.08
2023-02-06T07:44:50.743Z,217.33
2023-02-06T07:45:50.852Z,217.25
2023-02-06T07:46:50.911Z,214.59
2023-02-06T07:47:50.931Z,214.07
2023-02-06T07:48:51.047Z,211.57
2023-02-06T07:49:51.087Z,204.56
2023-02-06T07:50:51.142Z,199.36
2023-02-06T07:51:51.194Z,196.45
2023-02-06T07:52:51.249Z,194.12
2023-02-06T07:53:51.382Z,188.94
2023-02-06T07:54:51.554Z,188.10
2023-02-06T07:55:51.604Z,188.66
2023-02-06T07:56:51.683Z,185.58
2023-02-06T07:57:51.768Z,175.87
2023-02-06T07:58:52.405Z,169.65
2023-02-06T07:59:51.897Z,164.83
2023-02-06T08:00:52.003Z,153.51
2023-02-06T08:01:52.029Z,148.94
2023-02-06T08:02:52.102Z,147.10
2023-02-06T08:03:52.167Z,147.00
2023-02-06T08:04:52.289Z,148.40
2023-02-06T08:05:52.351Z,152.26
2023-02-06T08:06:52.423Z,151.96
2023-02-06T08:07:53.441Z,154.09
2023-02-06T08:08:52.516Z,151.18
2023-02-06T08:09:53.404Z,143.84
2023-02-06T08:10:52.705Z,142.36
2023-02-06T08:11:52.701Z,141.41
2023-02-06T08:12:52.760Z,141.55
2023-02-06T08:13:52.831Z,140.95
2023-02-06T08:14:52.859Z,146.75
2023-02-06T08:15:53.033Z,152.83
2023-02-06T08:16:53.197Z,157.07
2023-02-06T08:17:53.310Z,165.63
2023-02-06T08:18:53.468Z,170.92
2023-02-06T08:19:53.441Z,171.31
2023-02-06T08:20:53.558Z,168.91
2023-02-06T08:21:53.548Z,173.53
2023-02-06T08:22:53.688Z,179.19
2023-02-06T08:23:53.734Z,165.76
2023-02-06T08:24:53.805Z,154.97
2023-02-06T08:26:54.094Z,137.59
2023-02-06T08:27:54.338Z,129.18
2023-02-06T08:28:54.422Z,124.52
2023-02-06T08:29:54.516Z,121.88
2023-02-06T08:30:54.659Z,123.82
2023-02-06T08:31:55.444Z,123.76
2023-02-06T08:32:54.758Z,125.83
2023-02-06T08:33:54.829Z,123.49
2023-02-06T08:34:54.913Z,117.18
2023-02-06T08:35:55.004Z,114.08
2023-02-06T08:36:55.229Z,112.76
2023-02-06T08:37:55.460Z,116.35
2023-02-06T08:41:56.422Z,114.15
2023-02-06T08:42:56.601Z,112.91
2023-02-06T08:43:56.831Z,112.00
2023-02-06T08:44:57.066Z,116.59
2023-02-06T08:45:57.358Z,123.47
2023-02-06T08:47:09.241Z,129.14
2023-02-06T08:47:58.645Z,129.59
2023-02-06T08:48:57.609Z,132.11
2023-02-06T08:49:57.703Z,132.02
2023-02-06T08:50:57.693Z,129.43
2023-02-06T08:51:57.736Z,121.00
2023-02-06T08:52:57.773Z,103.59
2023-02-06T08:53:58.458Z,98.80
2023-02-06T08:54:58.038Z,98.99
2023-02-06T08:55:58.156Z,101.01
2023-02-06T08:56:58.247Z,105.11
2023-02-06T08:57:58.353Z,99.50
2023-02-06T08:58:58.340Z,102.66
2023-02-06T08:59:58.383Z,112.96
2023-02-06T09:01:58.565Z,188.98
2023-02-06T09:02:59.412Z,203.69
2023-02-06T09:03:58.619Z,207.39
2023-02-06T09:04:58.656Z,207.80
2023-02-06T09:06:05.597Z,210.47
2023-02-06T09:07:58.774Z,211.79
2023-02-06T09:08:58.807Z,214.54
2023-02-06T09:09:58.840Z,215.78
2023-02-06T09:10:58.867Z,214.79
2023-02-06T09:11:58.947Z,208.02
2023-02-06T09:12:59.125Z,205.54
2023-02-06T09:13:59.322Z,205.51
2023-02-06T09:56:08.201Z,173.58
2023-02-06T09:57:08.414Z,164.53
2023-02-06T09:58:08.645Z,152.21
2023-02-06T09:59:08.878Z,145.97
2023-02-06T10:00:09.120Z,143.21
2023-02-06T10:01:09.359Z,145.99
2023-02-06T11:15:18.153Z,42.70
2023-02-06T11:16:18.273Z,18.40
2023-02-06T11:17:18.268Z,19.45
2023-02-06T11:18:18.303Z,11.56
2023-02-06T11:19:18.317Z,17.72
2023-02-06T11:20:18.409Z,23.47
2023-02-06T11:21:18.475Z,27.37
2023-02-06T11:22:18.559Z,22.77
2023-02-06T11:23:18.601Z,25.00
2023-02-06T11:24:18.857Z,29.96
2023-02-06T11:25:19.039Z,29.12
2023-02-06T11:26:19.255Z,20.62
2023-02-06T11:27:19.448Z,24.27
2023-02-06T11:28:19.677Z,28.62
2023-02-06T11:29:19.880Z,30.58
2023-02-06T11:30:20.057Z,25.41
2023-02-06T11:31:20.313Z,27.46
2023-02-06T11:32:20.552Z,34.50
2023-02-06T11:33:20.784Z,41.95
2023-02-06T11:34:21.014Z,41.13
2023-02-06T11:35:21.216Z,36.59
2023-02-06T11:36:21.434Z,34.07
2023-02-06T11:37:21.673Z,28.83
2023-02-06T11:38:21.876Z,23.26
2023-02-06T11:39:22.113Z,21.48
2023-02-06T11:40:22.350Z,18.47
2023-02-06T11:41:22.529Z,16.00
2023-02-06T11:42:22.746Z,18.11
2023-02-06T11:43:22.913Z,23.20
2023-02-06T11:44:23.140Z,19.10
2023-02-06T11:45:23.347Z,21.24
2023-02-06T11:46:23.597Z,28.96
2023-02-06T11:47:23.752Z,36.54
2023-02-06T11:48:24.001Z,38.97
2023-02-06T11:49:24.307Z,44.15
2023-02-06T11:50:24.453Z,34.32
2023-02-06T11:51:24.666Z,27.88
2023-02-06T11:52:24.798Z,29.69
2023-02-06T11:53:25.027Z,32.79
2023-02-06T11:54:25.215Z,28.00
2023-02-06T11:55:25.446Z,24.97
2023-02-06T11:56:25.591Z,25.01
2023-02-06T11:57:25.776Z,24.87
2023-02-06T11:58:26.048Z,30.51
2023-02-06T11:59:26.170Z,35.71
2023-02-06T12:00:26.374Z,37.64
2023-02-06T12:01:26.581Z,36.27
2023-02-06T12:02:26.793Z,36.39
2023-02-06T12:03:27.057Z,37.73
2023-02-06T12:04:27.131Z,37.72
2023-02-06T12:05:27.325Z,38.88
2023-02-06T12:06:27.505Z,40.82
2023-02-06T12:07:27.689Z,65.28
2023-02-06T12:08:27.893Z,62.07
2023-02-06T12:09:28.071Z,51.42
2023-02-06T12:10:28.265Z,41.24
2023-02-06T12:11:28.470Z,38.80
2023-02-06T12:12:28.662Z,34.24
2023-02-06T12:16:29.474Z,31.60
2023-02-06T13:02:38.295Z,51.76
2023-02-06T13:03:38.455Z,44.92
2023-02-06T13:05:39.182Z,53.44
2023-02-06T13:08:38.823Z,63.77
2023-02-06T14:36:48.179Z,80.15
2023-02-06T14:37:48.382Z,78.38
2023-02-06T14:38:48.564Z,75.86
2023-02-06T14:39:48.723Z,67.32
2023-02-06T14:40:48.894Z,57.36
2023-02-06T14:41:49.100Z,56.94
2023-02-06T14:42:49.214Z,58.17
2023-02-06T14:43:49.467Z,64.26
2023-02-06T14:44:49.651Z,63.92
2023-02-06T14:46:05.592Z,63.14
2023-02-06T14:46:50.849Z,63.21
2023-02-06T14:47:50.064Z,64.02
2023-02-06T14:48:49.801Z,64.12
2023-02-06T14:49:49.779Z,65.14
2023-02-06T14:50:49.759Z,67.43
2023-02-06T14:51:49.742Z,71.94
2023-02-06T14:52:49.721Z,70.01
2023-02-06T14:53:49.715Z,63.86
2023-02-06T14:54:49.695Z,67.17
2023-02-06T14:55:49.666Z,62.70
2023-02-06T14:57:49.647Z,70.87
2023-02-06T14:58:49.637Z,71.59
2023-02-06T14:59:49.620Z,72.35
2023-02-06T15:00:49.668Z,78.12
2023-02-06T15:01:49.607Z,93.84
2023-02-06T15:02:49.632Z,115.51
2023-02-06T15:03:49.725Z,119.39
2023-02-06T15:04:49.714Z,123.87
2023-02-06T15:05:49.744Z,135.64
2023-02-06T15:06:49.769Z,154.35
2023-02-06T15:07:49.794Z,155.38
2023-02-06T15:08:49.841Z,135.82
2023-02-06T15:09:49.875Z,114.56
2023-02-06T15:10:49.909Z,104.48
2023-02-06T15:11:49.949Z,97.54
2023-02-06T15:12:49.983Z,95.81
2023-02-06T15:13:50.036Z,89.89
2023-02-06T15:14:50.086Z,94.88
2023-02-06T15:15:50.113Z,101.43
2023-02-06T15:16:50.167Z,95.70
2023-02-06T15:17:50.194Z,91.31
2023-02-06T15:18:50.226Z,92.60
2023-02-06T15:19:50.259Z,90.81
2023-02-06T15:20:50.296Z,90.15
2023-02-06T15:21:50.356Z,98.64
2023-02-06T15:22:50.404Z,105.17
2023-02-06T15:23:50.431Z,115.20
2023-02-06T15:24:50.493Z,120.35
2023-02-06T15:25:50.509Z,110.00
2023-02-06T15:26:50.557Z,91.53
2023-02-06T15:27:50.617Z,89.24
2023-02-06T15:28:50.657Z,78.32
2023-02-06T15:29:50.714Z,80.14
2023-02-06T15:30:50.775Z,79.73
2023-02-06T15:54:09.214Z,25.00
2023-02-06T15:55:09.456Z,25.00
2023-02-06T15:56:09.533Z,25.00
2023-02-06T15:57:09.799Z,25.00
2023-02-06T15:58:09.895Z,25.00
2023-02-06T15:59:10.145Z,105.28
2023-02-06T16:00:10.251Z,118.37
2023-02-06T16:01:10.571Z,111.13
2023-02-06T16:02:10.714Z,185.67
2023-02-06T16:03:10.882Z,155.96
2023-02-06T16:04:11.072Z,122.12
2023-02-06T16:05:11.261Z,150.09
2023-02-06T16:06:11.476Z,107.38
2023-02-06T16:39:18.170Z,161.83
2023-02-06T16:40:18.341Z,160.00
2023-02-06T16:41:18.522Z,150.99
2023-02-06T16:42:18.716Z,155.47
2023-02-06T16:43:18.890Z,145.22
2023-02-06T16:44:18.994Z,160.00
2023-02-06T16:45:19.187Z,195.75
2023-02-06T16:46:19.375Z,211.07
2023-02-06T16:47:19.557Z,251.26
2023-02-06T16:48:19.684Z,253.38
2023-02-06T16:49:19.983Z,251.68
2023-02-06T16:50:20.147Z,253.35
2023-02-06T16:51:20.342Z,226.29
2023-02-06T16:52:20.565Z,212.89
2023-02-06T16:53:20.780Z,222.68
2023-02-06T16:54:20.982Z,235.23
2023-02-06T16:55:23.163Z,246.79
2023-02-06T16:56:21.299Z,283.82
2023-02-06T16:57:21.401Z,271.49
2023-02-06T16:58:21.489Z,225.68
2023-02-06T16:59:21.557Z,223.52
2023-02-06T17:00:21.631Z,225.40
2023-02-06T17:01:21.733Z,216.21
2023-02-06T17:02:21.774Z,208.55
2023-02-06T17:03:21.902Z,194.88
2023-02-06T17:04:22.025Z,187.41
2023-02-06T17:05:22.152Z,182.92
2023-02-06T17:06:22.253Z,204.25
2023-02-06T17:07:22.370Z,193.22
2023-02-06T17:08:22.514Z,196.23
2023-02-06T17:09:22.625Z,209.59
2023-02-06T17:10:22.758Z,225.01
2023-02-06T17:11:22.876Z,225.78
2023-02-06T17:12:23.019Z,226.21
2023-02-06T18:01:28.151Z,231.32
2023-02-06T18:02:28.318Z,243.50
2023-02-06T18:03:28.337Z,227.14
2023-02-06T18:04:28.439Z,231.86
2023-02-06T18:05:28.514Z,224.55
2023-02-06T18:06:28.609Z,215.05
2023-02-06T18:07:28.690Z,212.66
2023-02-06T18:08:28.813Z,222.02
2023-02-06T18:09:28.914Z,205.00
2023-02-06T18:10:28.999Z,202.31
2023-02-06T18:11:29.108Z,208.21
2023-02-06T18:12:29.184Z,215.86
2023-02-06T18:13:29.311Z,224.27
2023-02-06T18:14:29.418Z,234.62
2023-02-06T18:15:31.781Z,244.05
2023-02-06T18:16:29.623Z,245.79
2023-02-06T18:17:29.718Z,251.01
2023-02-06T18:18:29.790Z,251.99
2023-02-06T18:19:29.875Z,241.71
2023-02-06T18:20:29.923Z,237.57
2023-02-06T18:21:30.007Z,240.46
2023-02-06T18:22:30.100Z,235.36
2023-02-06T18:23:30.206Z,223.37
2023-02-06T18:24:30.315Z,205.30
2023-02-06T18:25:30.560Z,202.29
2023-02-06T18:26:30.501Z,212.55
2023-02-06T18:27:30.580Z,231.57
2023-02-06T18:28:30.631Z,263.82
2023-02-06T18:29:40.159Z,266.42
2023-02-06T18:30:31.799Z,240.65
2023-02-06T18:31:30.864Z,216.63
2023-02-06T18:32:30.878Z,193.14
2023-02-06T18:33:30.941Z,195.29
2023-02-06T18:34:30.980Z,201.97
2023-02-06T18:35:31.032Z,208.99
2023-02-06T18:36:31.070Z,225.20
2023-02-06T18:37:31.115Z,221.70
2023-02-06T18:38:31.160Z,217.02
2023-02-06T18:39:31.218Z,224.22
2023-02-06T18:40:31.311Z,211.49
2023-02-06T18:41:31.418Z,209.59
2023-02-06T18:42:31.521Z,191.90
2023-02-06T18:43:31.613Z,186.26
2023-02-06T18:44:31.716Z,184.64
2023-02-06T18:45:31.789Z,168.93
2023-02-06T18:46:31.871Z,161.83
2023-02-06T18:47:31.952Z,166.15
2023-02-06T18:48:32.034Z,153.47
2023-02-06T18:49:32.127Z,143.42
2023-02-06T18:50:32.229Z,146.71
2023-02-06T18:51:32.361Z,162.83
2023-02-06T18:52:32.464Z,158.88
2023-02-06T18:53:32.578Z,167.24
2023-02-06T18:54:32.687Z,163.08
2023-02-06T18:55:32.813Z,157.65
2023-02-06T18:56:32.913Z,168.26
2023-02-06T18:57:33.072Z,175.09
2023-02-06T18:58:33.173Z,174.07
2023-02-06T18:59:33.277Z,186.28
2023-02-06T19:00:33.446Z,179.77
2023-02-06T19:01:33.564Z,180.24
2023-02-06T19:02:33.641Z,162.84
2023-02-06T19:03:33.763Z,171.36
2023-02-06T19:04:33.891Z,175.92
2023-02-06T19:05:34.025Z,177.70
2023-02-06T19:06:34.129Z,172.46
2023-02-06T19:07:34.261Z,163.61
2023-02-06T19:08:34.382Z,146.51
2023-02-06T19:09:34.500Z,140.73
2023-02-06T19:10:34.768Z,151.52
2023-02-06T19:11:34.714Z,157.00
2023-02-06T19:12:34.846Z,148.64
2023-02-06T19:40:38.469Z,63.46
2023-02-06T19:41:38.257Z,61.65
2023-02-06T19:42:38.386Z,58.04
2023-02-06T19:43:38.491Z,45.12
2023-02-06T19:44:38.587Z,30.53
2023-02-06T19:45:38.778Z,19.83
2023-02-06T19:46:38.889Z,31.91
2023-02-06T19:47:39.005Z,25.40
2023-02-06T19:48:39.130Z,26.56
2023-02-06T19:49:39.249Z,23.32
2023-02-06T19:50:39.346Z,25.13
2023-02-06T19:51:39.520Z,26.59
2023-02-06T21:12:48.188Z,181.45
2023-02-06T21:13:48.299Z,161.66
2023-02-06T21:14:48.415Z,139.15
2023-02-06T21:15:48.677Z,131.70
2023-02-06T21:16:48.707Z,130.12
2023-02-06T21:17:48.819Z,120.60
2023-02-06T21:18:48.985Z,122.50
2023-02-06T21:19:49.131Z,117.78
2023-02-06T21:20:49.279Z,112.36
2023-02-06T22:36:58.091Z,253.92
2023-02-06T22:37:58.206Z,248.84
2023-02-06T22:38:58.304Z,245.73
2023-02-06T22:39:58.397Z,243.92
2023-02-06T22:40:58.594Z,241.67
2023-02-06T22:41:58.606Z,245.07
2023-02-06T22:42:58.714Z,243.61
2023-02-06T22:43:58.811Z,244.84
2023-02-06T22:44:58.918Z,250.03
2023-02-06T22:45:59.015Z,249.39
2023-02-06T22:46:59.107Z,246.94
2023-02-06T22:47:59.212Z,240.89
2023-02-06T22:48:59.306Z,238.06
2023-02-06T23:54:08.171Z,166.95
2023-02-06T23:55:08.275Z,174.06
2023-02-06T23:56:08.401Z,175.32
2023-02-06T23:57:08.530Z,179.03
